Time;durP1;ratioP1;P1;durP2;ratioP2;P2;SDS_P1;SDS_P2;PMS_P1;PMS_P2;Temp;Humidity;BMP_temperature;BMP_pressure;BME280_temperature;BME280_humidity;BME280_pressure;Samples;Min_cycle;Max_cycle;Signal;HPM_P1;HPM_P2
2022/01/24 00:01:44;;;;;;;38.55;25.95;;;4.40;79.90;;;;;;5052890;28;20150;-85
2022/01/24 00:04:12;;;;;;;40.83;26.27;;;4.30;79.90;;;;;;5054990;28;20045;-85
2022/01/24 00:06:40;;;;;;;37.47;25.10;;;4.30;79.90;;;;;;5051450;28;20063;-85
2022/01/24 00:09:09;;;;;;;36.15;25.65;;;4.40;79.90;;;;;;5052851;28;20531;-86
2022/01/24 00:12:04;;;;;;;37.92;24.73;;;4.30;79.90;;;;;;5053025;28;20136;-85
2022/01/24 00:17:13;;;;;;;37.97;25.77;;;4.30;79.90;;;;;;5036808;28;20045;-86
2022/01/24 00:27:57;;;;;;;35.20;24.58;;;4.30;79.90;;;;;;5053552;28;20041;-86
2022/01/24 00:30:25;;;;;;;36.47;25.58;;;4.30;79.90;;;;;;5052227;28;20159;-85
2022/01/24 00:32:52;;;;;;;39.47;25.88;;;4.30;79.90;;;;;;5051391;28;20132;-85
2022/01/24 00:35:19;;;;;;;37.95;26.63;;;4.30;79.80;;;;;;5052386;28;20498;-86
2022/01/24 00:37:46;;;;;;;36.88;25.88;;;4.30;79.90;;;;;;5052493;28;20055;-85
2022/01/24 00:40:14;;;;;;;38.55;26.95;;;4.30;79.90;;;;;;5054545;28;20053;-87
2022/01/24 00:42:53;;;;;;;37.22;25.73;;;4.30;79.90;;;;;;5052326;28;20056;-86
2022/01/24 00:53:29;;;;;;;39.40;26.77;;;4.30;79.80;;;;;;5039124;28;20079;-86
2022/01/24 00:55:57;;;;;;;39.15;26.35;;;4.30;79.80;;;;;;5036583;28;20051;-85
2022/01/24 00:58:24;;;;;;;37.78;25.95;;;4.30;79.80;;;;;;5053965;28;20061;-86
2022/01/24 01:00:51;;;;;;;39.13;26.95;;;4.30;79.80;;;;;;5052571;28;20049;-85
2022/01/24 01:03:19;;;;;;;39.60;27.38;;;4.30;79.80;;;;;;5050940;28;20047;-85
2022/01/24 01:06:20;;;;;;;38.38;27.27;;;4.30;79.80;;;;;;5051594;28;20049;-85
2022/01/24 01:19:45;;;;;;;37.75;25.45;;;4.30;79.80;;;;;;5051689;28;20061;-85
2022/01/24 01:22:13;;;;;;;40.55;26.58;;;4.30;79.80;;;;;;5053736;28;20124;-85
2022/01/24 01:24:47;;;;;;;41.78;27.42;;;4.30;79.80;;;;;;5049976;28;20053;-85
2022/01/24 01:27:23;;;;;;;43.28;26.35;;;4.20;79.80;;;;;;5051461;28;20543;-85
2022/01/24 01:30:01;;;;;;;40.72;27.88;;;4.20;79.80;;;;;;5050231;28;20048;-85
2022/01/24 01:33:00;;;;;;;39.13;27.52;;;4.20;79.70;;;;;;5051401;28;20055;-85
2022/01/24 01:35:42;;;;;;;39.80;28.13;;;4.20;79.70;;;;;;5049787;28;20041;-85
2022/01/24 01:54:46;;;;;;;36.65;26.30;;;4.20;79.60;;;;;;5050974;28;20059;-85
2022/01/24 01:57:18;;;;;;;34.35;25.58;;;4.30;79.60;;;;;;5050428;28;20055;-85
2022/01/24 01:59:46;;;;;;;38.67;26.73;;;4.20;79.60;;;;;;5050658;28;20408;-85
2022/01/24 02:02:14;;;;;;;32.13;24.60;;;4.30;79.50;;;;;;5048506;28;20041;-85
2022/01/24 02:04:41;;;;;;;34.28;24.83;;;4.30;79.50;;;;;;5050622;28;20071;-86
2022/01/24 02:07:13;;;;;;;34.25;26.25;;;4.20;79.50;;;;;;5052651;28;20053;-84
2022/01/24 02:09:43;;;;;;;33.55;24.73;;;4.30;79.50;;;;;;5049511;28;20059;-86
2022/01/24 02:12:11;;;;;;;34.20;23.90;;;4.30;79.50;;;;;;5050685;28;20055;-84
2022/01/24 02:14:45;;;;;;;33.35;23.67;;;4.20;79.40;;;;;;5048939;28;20049;-85
2022/01/24 02:17:18;;;;;;;32.13;24.58;;;4.20;79.40;;;;;;5050501;28;20148;-85
2022/01/24 02:22:42;;;;;;;34.80;26.33;;;4.20;79.40;;;;;;5048815;28;20053;-84
2022/01/24 02:25:22;;;;;;;31.90;25.23;;;4.20;79.30;;;;;;5052540;28;20053;-84
2022/01/24 02:27:55;;;;;;;30.48;23.58;;;4.20;79.30;;;;;;5047942;28;20486;-85
2022/01/24 02:30:41;;;;;;;33.63;24.58;;;4.20;79.30;;;;;;5050321;28;20620;-84
2022/01/24 02:33:10;;;;;;;33.15;25.13;;;4.20;79.30;;;;;;5049064;28;20536;-85
2022/01/24 02:35:37;;;;;;;31.58;24.67;;;4.20;79.30;;;;;;5050165;28;20141;-85
2022/01/24 02:38:13;;;;;;;34.42;24.42;;;4.20;79.20;;;;;;5050482;28;20051;-84
2022/01/24 02:40:41;;;;;;;32.63;23.75;;;4.20;79.20;;;;;;5050536;28;20051;-85
2022/01/24 02:48:21;;;;;;;32.53;23.77;;;4.20;79.20;;;;;;5049469;28;20045;-85
2022/01/24 02:48:47;;;;;;;31.45;23.45;;;4.20;79.20;;;;;;5050138;28;20471;-85
2022/01/24 02:53:50;;;;;;;31.95;23.23;;;4.20;79.10;;;;;;5048355;28;20071;-86
2022/01/24 02:56:17;;;;;;;31.65;22.02;;;4.20;79.10;;;;;;5050073;28;20425;-85
2022/01/24 02:58:44;;;;;;;30.23;23.23;;;4.20;79.10;;;;;;5050108;28;20049;-85
2022/01/24 03:01:11;;;;;;;28.85;21.65;;;4.10;79.10;;;;;;5052093;28;20053;-86
2022/01/24 03:03:40;;;;;;;30.33;22.25;;;4.10;79.10;;;;;;5049912;28;20041;-88
2022/01/24 03:06:07;;;;;;;30.17;22.73;;;4.10;79.00;;;;;;5049804;28;20055;-85
2022/01/24 03:08:37;;;;;;;31.35;22.25;;;4.00;79.00;;;;;;5048806;28;20099;-86
2022/01/24 03:11:04;;;;;;;30.77;22.85;;;4.00;79.00;;;;;;5049676;28;20047;-85
2022/01/24 03:13:35;;;;;;;31.75;22.58;;;4.00;79.00;;;;;;5051156;28;20075;-85
2022/01/24 03:16:04;;;;;;;31.38;21.40;;;4.00;78.90;;;;;;5051522;28;20064;-85
2022/01/24 03:18:32;;;;;;;33.20;21.85;;;4.00;78.90;;;;;;5077418;28;20045;-86
2022/01/24 03:20:59;;;;;;;29.67;21.73;;;3.90;78.90;;;;;;5048461;28;20128;-85
2022/01/24 03:23:26;;;;;;;29.50;22.05;;;3.90;78.80;;;;;;5049626;28;20049;-86
2022/01/24 03:25:54;;;;;;;28.75;20.92;;;3.90;78.80;;;;;;5034442;28;20056;-86
2022/01/24 03:28:21;;;;;;;31.67;21.65;;;3.80;78.70;;;;;;5051564;28;20521;-85
2022/01/24 03:30:49;;;;;;;29.48;21.00;;;3.80;78.70;;;;;;5052638;28;20055;-85
2022/01/24 03:33:16;;;;;;;27.30;20.85;;;3.70;78.70;;;;;;5052044;28;20053;-86
2022/01/24 03:35:43;;;;;;;27.67;20.98;;;3.70;78.70;;;;;;5053455;28;20059;-84
2022/01/24 03:38:12;;;;;;;29.98;21.52;;;3.60;78.70;;;;;;5053473;28;20059;-86
2022/01/24 03:40:40;;;;;;;29.20;20.85;;;3.60;78.70;;;;;;5053471;28;20055;-85
2022/01/24 03:43:07;;;;;;;27.25;20.38;;;3.60;78.70;;;;;;5054280;28;20045;-86
2022/01/24 03:45:41;;;;;;;26.95;20.27;;;3.50;78.60;;;;;;5053380;28;20049;-85
2022/01/24 03:48:22;;;;;;;28.10;20.63;;;3.50;78.70;;;;;;5050665;28;20103;-85
2022/01/24 03:50:50;;;;;;;28.70;19.00;;;3.50;78.60;;;;;;5053406;28;20041;-88
2022/01/24 03:53:17;;;;;;;26.75;19.65;;;3.40;78.70;;;;;;5053049;28;20041;-87
2022/01/24 03:55:44;;;;;;;28.55;19.17;;;3.40;78.70;;;;;;5053130;28;20064;-87
2022/01/24 03:58:11;;;;;;;28.60;19.92;;;3.30;78.70;;;;;;5055295;28;20051;-87
2022/01/24 04:00:38;;;;;;;29.70;20.15;;;3.30;78.70;;;;;;5051706;28;20049;-87
2022/01/24 04:03:06;;;;;;;27.63;19.58;;;3.30;78.70;;;;;;5052954;28;20044;-87
2022/01/24 04:05:33;;;;;;;26.35;18.92;;;3.20;78.70;;;;;;5052959;28;20050;-87
2022/01/24 04:08:01;;;;;;;26.90;19.75;;;3.20;78.70;;;;;;5052737;28;20044;-88
2022/01/24 04:10:29;;;;;;;29.60;19.08;;;3.10;78.70;;;;;;5054178;28;20131;-85
2022/01/24 04:13:07;;;;;;;27.58;19.52;;;3.20;78.70;;;;;;5053804;28;20053;-85
2022/01/24 04:23:42;;;;;;;26.13;19.10;;;3.00;78.70;;;;;;5052296;28;20037;-88
2022/01/24 04:26:09;;;;;;;25.73;18.50;;;2.90;78.70;;;;;;5052945;28;20053;-89
2022/01/24 04:28:36;;;;;;;25.58;18.75;;;2.90;78.70;;;;;;5052098;28;20052;-87
2022/01/24 04:31:03;;;;;;;27.77;19.80;;;2.90;78.80;;;;;;5053409;28;20048;-87
2022/01/24 04:33:30;;;;;;;26.15;19.25;;;2.90;78.80;;;;;;5052460;28;20055;-88
2022/01/24 04:35:58;;;;;;;29.00;19.02;;;2.90;78.80;;;;;;5052039;28;20154;-86
2022/01/24 04:38:25;;;;;;;25.90;19.20;;;2.80;78.80;;;;;;5051047;28;20048;-85
2022/01/24 04:40:57;;;;;;;28.35;19.67;;;2.80;78.80;;;;;;5034355;28;20045;-88
2022/01/24 04:51:33;;;;;;;29.05;19.27;;;2.70;78.80;;;;;;5051843;28;20045;-88
2022/01/24 04:56:39;;;;;;;28.83;19.60;;;2.60;78.90;;;;;;5052080;28;20048;-88
2022/01/24 04:59:07;;;;;;;27.67;19.10;;;2.60;78.90;;;;;;5051963;28;20502;-85
2022/01/24 05:01:34;;;;;;;27.02;19.65;;;2.60;78.90;;;;;;5052960;28;20049;-88
2022/01/24 05:04:03;;;;;;;26.88;19.33;;;2.60;78.90;;;;;;5053650;28;20052;-88
2022/01/24 05:06:30;;;;;;;27.40;19.08;;;2.50;78.90;;;;;;5050215;28;20471;-88
2022/01/24 05:08:57;;;;;;;26.65;19.40;;;2.50;78.90;;;;;;5050580;28;20055;-88
2022/01/24 05:11:36;;;;;;;27.45;19.23;;;2.50;78.90;;;;;;5050765;28;20051;-88
2022/01/24 05:25:10;;;;;;;29.42;19.77;;;2.40;79.00;;;;;;5052159;28;20051;-89
2022/01/24 05:27:37;;;;;;;30.48;20.42;;;2.40;79.00;;;;;;5051421;28;20421;-88
2022/01/24 05:30:05;;;;;;;33.25;21.33;;;2.40;79.00;;;;;;5051312;28;20045;-88
2022/01/24 05:32:32;;;;;;;29.35;21.02;;;2.40;79.00;;;;;;5051366;28;20044;-87
2022/01/24 05:34:59;;;;;;;32.08;20.48;;;2.40;79.00;;;;;;5050908;28;20053;-88
2022/01/24 05:37:26;;;;;;;29.40;20.52;;;2.40;79.00;;;;;;5052936;28;20424;-87
2022/01/24 05:39:53;;;;;;;30.75;20.85;;;2.30;79.00;;;;;;5050532;28;20045;-87
2022/01/24 05:42:21;;;;;;;30.75;21.10;;;2.30;79.00;;;;;;5051037;28;20059;-87
2022/01/24 05:44:49;;;;;;;31.05;20.50;;;2.30;79.00;;;;;;5051001;28;20607;-87
2022/01/24 05:47:17;;;;;;;34.22;21.15;;;2.20;79.00;;;;;;5051215;28;20045;-87
2022/01/24 05:49:45;;;;;;;33.42;21.55;;;2.20;79.00;;;;;;5050321;28;20057;-87
2022/01/24 05:52:12;;;;;;;31.52;22.17;;;2.20;79.00;;;;;;5053121;28;20052;-87
2022/01/24 05:54:40;;;;;;;28.73;21.65;;;2.20;79.00;;;;;;5050732;28;20055;-87
2022/01/24 05:57:08;;;;;;;32.70;21.52;;;2.20;79.00;;;;;;5049530;28;20044;-87
2022/01/24 05:59:36;;;;;;;31.23;21.77;;;2.20;79.00;;;;;;5050866;28;20047;-87
2022/01/24 06:02:04;;;;;;;30.20;21.90;;;2.20;79.00;;;;;;5050887;28;20561;-87
2022/01/24 06:04:33;;;;;;;33.47;23.02;;;2.10;79.00;;;;;;5051536;28;20088;-88
2022/01/24 06:07:00;;;;;;;32.65;21.58;;;2.10;79.10;;;;;;5051867;28;20051;-87
2022/01/24 06:09:27;;;;;;;31.77;22.52;;;2.10;79.10;;;;;;5049209;28;20048;-88
2022/01/24 06:11:55;;;;;;;33.10;22.65;;;2.10;79.10;;;;;;5050610;28;20049;-87
2022/01/24 06:14:22;;;;;;;33.33;23.92;;;2.00;79.10;;;;;;5050719;28;20045;-88
2022/01/24 06:16:48;;;;;;;35.78;23.13;;;2.00;79.10;;;;;;5050598;28;20505;-87
2022/01/24 06:19:16;;;;;;;33.10;21.90;;;2.00;79.10;;;;;;5052287;28;20051;-87
2022/01/24 06:21:44;;;;;;;33.05;21.58;;;2.00;79.10;;;;;;5050513;28;20045;-87
2022/01/24 06:24:12;;;;;;;35.85;24.38;;;2.00;79.10;;;;;;5050295;28;20479;-88
2022/01/24 06:26:59;;;;;;;35.80;23.08;;;2.00;79.10;;;;;;5050625;28;20045;-87
2022/01/24 06:29:26;;;;;;;36.05;23.45;;;2.00;79.10;;;;;;5050524;28;20511;-87
2022/01/24 06:31:53;;;;;;;34.92;23.27;;;2.00;79.10;;;;;;5031828;28;20045;-88
2022/01/24 06:34:20;;;;;;;35.83;23.35;;;1.90;79.20;;;;;;5052537;28;20060;-88
2022/01/24 06:36:47;;;;;;;34.58;23.70;;;1.90;79.20;;;;;;5048874;28;20056;-88
2022/01/24 06:39:19;;;;;;;35.22;24.02;;;1.90;79.20;;;;;;5050215;28;20083;-88
2022/01/24 06:41:53;;;;;;;38.33;24.25;;;1.90;79.20;;;;;;5050170;28;20052;-88
2022/01/24 06:44:21;;;;;;;39.55;23.88;;;1.90;79.20;;;;;;5050280;28;20041;-89
2022/01/24 06:46:48;;;;;;;38.65;24.63;;;1.90;79.20;;;;;;5049829;28;20059;-89
2022/01/24 06:49:15;;;;;;;37.45;23.67;;;1.90;79.30;;;;;;5052302;28;20452;-87
2022/01/24 06:51:42;;;;;;;37.50;24.50;;;1.80;79.30;;;;;;5050086;28;20052;-87
2022/01/24 06:54:09;;;;;;;35.10;23.45;;;1.80;79.30;;;;;;5050182;28;20063;-87
2022/01/24 06:56:36;;;;;;;35.25;23.85;;;1.80;79.30;;;;;;5049872;28;20130;-88
2022/01/24 06:59:03;;;;;;;36.90;24.10;;;1.80;79.30;;;;;;5050268;28;20045;-87
2022/01/24 07:01:30;;;;;;;35.25;22.70;;;1.80;79.20;;;;;;5052429;28;20462;-87
2022/01/24 07:03:57;;;;;;;37.75;23.27;;;1.70;79.20;;;;;;5052757;28;20045;-87
2022/01/24 07:06:25;;;;;;;36.22;24.58;;;1.70;79.20;;;;;;5053958;28;20686;-87
2022/01/24 07:08:52;;;;;;;39.22;24.20;;;1.70;79.20;;;;;;5052182;28;20067;-89
2022/01/24 07:11:20;;;;;;;36.35;23.63;;;1.70;79.20;;;;;;5051073;28;20041;-87
2022/01/24 07:13:49;;;;;;;38.88;24.38;;;1.70;79.30;;;;;;5052705;28;20053;-88
2022/01/24 07:16:17;;;;;;;36.63;23.52;;;1.70;79.30;;;;;;5055264;28;20051;-87
2022/01/24 07:19:01;;;;;;;37.88;23.80;;;1.70;79.30;;;;;;5053506;28;20047;-88
2022/01/24 07:21:30;;;;;;;43.60;28.00;;;1.60;79.30;;;;;;5053310;28;20053;-87
2022/01/24 07:23:57;;;;;;;38.53;25.40;;;1.60;79.30;;;;;;5053278;28;20037;-87
2022/01/24 07:26:24;;;;;;;43.17;28.20;;;1.70;79.30;;;;;;5051915;28;20041;-88
2022/01/24 07:28:51;;;;;;;45.33;28.13;;;1.60;79.30;;;;;;5053333;28;20049;-88
2022/01/24 07:31:19;;;;;;;46.35;28.35;;;1.60;79.40;;;;;;5054971;28;20056;-88
2022/01/24 07:33:46;;;;;;;51.20;29.50;;;1.60;79.40;;;;;;5053138;28;20509;-86
2022/01/24 07:36:13;;;;;;;45.20;28.50;;;1.60;79.50;;;;;;5052727;28;20059;-87
2022/01/24 07:38:40;;;;;;;44.58;27.73;;;1.60;79.50;;;;;;5053321;28;20078;-87
2022/01/24 07:41:07;;;;;;;45.17;26.90;;;1.60;79.50;;;;;;5053406;28;20049;-87
2022/01/24 07:43:34;;;;;;;45.17;26.70;;;1.60;79.60;;;;;;5053773;28;20045;-87
2022/01/24 07:46:01;;;;;;;43.92;26.52;;;1.60;79.60;;;;;;5054241;28;20060;-87
2022/01/24 07:48:29;;;;;;;45.40;27.63;;;1.50;79.60;;;;;;5052980;28;20041;-86
2022/01/24 07:50:56;;;;;;;48.45;26.88;;;1.60;79.70;;;;;;5052840;28;20152;-86
2022/01/24 07:53:24;;;;;;;45.42;27.08;;;1.50;79.70;;;;;;5051775;28;20051;-87
2022/01/24 07:56:12;;;;;;;39.78;25.02;;;1.50;79.70;;;;;;5039609;28;20418;-87
2022/01/24 07:58:41;;;;;;;46.50;28.27;;;1.50;79.70;;;;;;5052697;28;20049;-87
2022/01/24 08:01:08;;;;;;;45.78;27.05;;;1.50;79.70;;;;;;5051703;28;20052;-87
2022/01/24 08:03:36;;;;;;;41.63;26.10;;;1.50;79.70;;;;;;5051752;28;20567;-87
2022/01/24 08:06:03;;;;;;;45.83;26.45;;;1.50;79.80;;;;;;5050903;28;20049;-86
2022/01/24 08:08:31;;;;;;;46.20;27.48;;;1.50;79.80;;;;;;5052719;28;20063;-87
2022/01/24 08:10:58;;;;;;;41.17;26.08;;;1.50;79.80;;;;;;5052899;28;20051;-87
2022/01/24 08:13:25;;;;;;;43.72;25.48;;;1.50;79.80;;;;;;5053524;28;20044;-86
2022/01/24 08:15:52;;;;;;;41.10;25.45;;;1.50;79.80;;;;;;5048509;28;20041;-86
2022/01/24 08:18:20;;;;;;;42.33;26.90;;;1.50;79.80;;;;;;5047048;28;20055;-87
2022/01/24 08:20:47;;;;;;;42.40;26.55;;;1.50;79.80;;;;;;5052097;28;20063;-86
2022/01/24 08:23:16;;;;;;;44.47;27.35;;;1.50;79.80;;;;;;5052466;28;20053;-86
2022/01/24 08:25:43;;;;;;;45.50;28.02;;;1.50;79.90;;;;;;5052297;28;20128;-87
2022/01/24 08:28:10;;;;;;;45.00;27.00;;;1.40;79.90;;;;;;5053659;28;20049;-87
2022/01/24 08:30:39;;;;;;;44.63;26.35;;;1.50;79.90;;;;;;5052330;28;20049;-87
2022/01/24 08:33:06;;;;;;;41.78;27.02;;;1.40;79.90;;;;;;5050653;28;20045;-87
2022/01/24 08:35:33;;;;;;;45.78;27.98;;;1.40;80.00;;;;;;5052082;28;20414;-87
2022/01/24 08:38:00;;;;;;;50.78;28.33;;;1.50;80.00;;;;;;5052007;28;20045;-86
2022/01/24 08:40:30;;;;;;;45.35;26.65;;;1.50;80.00;;;;;;5054001;28;20049;-87
2022/01/24 08:43:04;;;;;;;44.55;27.15;;;1.50;80.10;;;;;;5053059;28;20063;-86
2022/01/24 08:45:58;;;;;;;47.35;30.70;;;1.50;80.10;;;;;;5050695;28;20052;-87
2022/01/24 08:48:26;;;;;;;46.67;27.95;;;1.50;80.20;;;;;;5052214;28;20056;-86
2022/01/24 08:50:55;;;;;;;47.38;28.70;;;1.50;80.20;;;;;;5052077;28;20048;-86
2022/01/24 08:53:34;;;;;;;49.88;30.95;;;1.50;80.20;;;;;;5051380;28;20051;-86
2022/01/24 08:56:05;;;;;;;46.95;29.80;;;1.50;80.30;;;;;;5037529;28;20059;-86
2022/01/24 08:58:34;;;;;;;51.22;29.67;;;1.50;80.30;;;;;;5053040;28;20395;-86
2022/01/24 09:01:01;;;;;;;48.15;28.20;;;1.50;80.30;;;;;;5053666;28;20055;-86
2022/01/24 09:03:32;;;;;;;47.03;28.88;;;1.60;80.40;;;;;;5052107;28;20053;-86
2022/01/24 09:06:00;;;;;;;46.42;29.55;;;1.60;80.40;;;;;;5051692;28;20564;-85
2022/01/24 09:08:27;;;;;;;51.55;29.77;;;1.60;80.40;;;;;;5051958;28;20055;-86
2022/01/24 09:10:54;;;;;;;51.60;30.58;;;1.60;80.40;;;;;;5036053;28;20421;-85
2022/01/24 09:13:21;;;;;;;45.53;29.73;;;1.60;80.50;;;;;;5049366;28;20053;-85
2022/01/24 09:15:49;;;;;;;51.85;30.30;;;1.60;80.50;;;;;;5051743;28;20041;-86
2022/01/24 09:18:19;;;;;;;47.47;30.73;;;1.70;80.60;;;;;;5051772;28;20413;-86
2022/01/24 09:20:50;;;;;;;46.15;28.55;;;1.70;80.60;;;;;;5051552;28;20045;-85
2022/01/24 09:23:18;;;;;;;52.33;30.67;;;1.70;80.60;;;;;;5049875;28;20049;-86
2022/01/24 09:25:45;;;;;;;47.97;28.30;;;1.70;80.70;;;;;;5050995;28;20057;-86
2022/01/24 09:28:12;;;;;;;51.78;31.40;;;1.70;80.70;;;;;;5053193;28;20049;-86
2022/01/24 09:30:39;;;;;;;51.10;30.00;;;1.80;80.70;;;;;;5051524;28;20063;-86
2022/01/24 09:33:06;;;;;;;50.25;30.48;;;1.80;80.80;;;;;;5051213;28;20045;-85
2022/01/24 09:35:33;;;;;;;47.00;30.05;;;1.90;80.80;;;;;;5050161;28;20051;-86
2022/01/24 09:38:00;;;;;;;50.85;31.13;;;1.80;80.90;;;;;;5051491;28;20072;-85
2022/01/24 09:40:27;;;;;;;46.60;29.13;;;1.90;80.90;;;;;;5052604;28;20049;-86
2022/01/24 09:42:54;;;;;;;47.65;29.60;;;1.90;81.00;;;;;;5050515;28;20049;-85
2022/01/24 09:45:22;;;;;;;48.47;28.23;;;1.90;81.00;;;;;;5051129;28;20048;-86
2022/01/24 09:47:50;;;;;;;48.38;30.10;;;1.90;81.00;;;;;;5051089;28;20420;-85
2022/01/24 09:50:18;;;;;;;47.10;29.23;;;2.00;81.10;;;;;;5049857;28;20124;-86
2022/01/24 09:52:48;;;;;;;48.65;29.75;;;2.00;81.10;;;;;;5051031;28;20053;-86
2022/01/24 09:55:18;;;;;;;47.25;27.80;;;2.00;81.10;;;;;;5052757;28;20053;-86
2022/01/24 09:57:49;;;;;;;47.15;29.05;;;2.00;81.20;;;;;;5050650;28;20051;-86
2022/01/24 10:00:24;;;;;;;46.75;28.63;;;2.10;81.20;;;;;;5050907;28;20049;-86
2022/01/24 10:02:52;;;;;;;47.03;27.90;;;2.10;81.20;;;;;;5049147;28;20040;-85
2022/01/24 10:05:42;;;;;;;46.75;28.77;;;2.10;81.20;;;;;;5049751;28;20053;-86
2022/01/24 10:08:29;;;;;;;46.08;27.88;;;2.20;81.30;;;;;;5050867;28;20048;-86
2022/01/24 10:11:00;;;;;;;47.42;28.10;;;2.30;81.40;;;;;;5034905;28;20048;-87
2022/01/24 10:16:44;;;;;;;47.88;28.50;;;2.50;81.40;;;;;;5052495;28;20059;-86
2022/01/24 10:19:16;;;;;;;46.63;27.90;;;2.60;81.40;;;;;;5051225;28;20414;-87
2022/01/24 10:22:02;;;;;;;46.78;27.67;;;2.80;81.30;;;;;;5049460;28;20122;-87
2022/01/24 10:24:32;;;;;;;47.95;28.02;;;2.90;81.20;;;;;;5042776;28;20158;-87
2022/01/24 10:27:16;;;;;;;47.10;28.80;;;3.20;81.00;;;;;;5049353;28;20052;-86
2022/01/24 10:30:03;;;;;;;53.50;27.60;;;3.40;80.90;;;;;;5041090;28;20055;-86
2022/01/24 10:32:39;;;;;;;45.90;26.48;;;3.60;80.70;;;;;;5049994;28;20045;-86
2022/01/24 10:35:27;;;;;;;44.85;25.35;;;3.80;80.50;;;;;;5050201;28;20049;-86
2022/01/24 10:38:25;;;;;;;40.13;25.80;;;4.00;80.20;;;;;;5034451;28;20049;-86
2022/01/24 10:41:09;;;;;;;39.25;24.65;;;4.20;80.00;;;;;;5048535;28;20072;-86
2022/01/24 10:43:39;;;;;;;39.10;24.40;;;4.40;79.70;;;;;;5048504;28;20076;-86
2022/01/24 10:46:08;;;;;;;43.30;24.30;;;4.50;79.50;;;;;;5049677;28;20041;-86
2022/01/24 10:48:39;;;;;;;37.38;24.77;;;4.70;79.20;;;;;;5049615;28;20053;-87
2022/01/24 10:51:08;;;;;;;34.13;21.48;;;4.90;79.00;;;;;;5044681;28;20037;-87
2022/01/24 10:53:51;;;;;;;36.80;21.95;;;5.00;78.80;;;;;;5038301;28;20433;-88
2022/01/24 10:56:32;;;;;;;33.97;22.40;;;5.10;78.50;;;;;;5047325;28;20047;-84
2022/01/24 10:59:10;;;;;;;35.20;22.48;;;5.30;78.30;;;;;;5033066;28;20056;-85
2022/01/24 11:01:39;;;;;;;32.80;20.98;;;5.50;78.00;;;;;;5047537;28;20170;-85
2022/01/24 11:04:08;;;;;;;33.53;21.27;;;5.60;77.70;;;;;;5031927;28;20144;-86
2022/01/24 11:06:48;;;;;;;36.10;21.55;;;5.70;77.50;;;;;;5036084;28;20431;-86
2022/01/24 11:09:23;;;;;;;31.70;20.55;;;5.80;77.20;;;;;;5037687;28;20491;-85
2022/01/24 11:12:01;;;;;;;33.03;21.30;;;5.90;76.90;;;;;;5040747;28;20424;-86
2022/01/24 11:14:31;;;;;;;32.42;20.50;;;6.00;76.60;;;;;;5047564;28;20053;-85
2022/01/24 11:17:00;;;;;;;32.13;20.10;;;6.10;76.40;;;;;;5032430;28;20072;-86
2022/01/24 11:21:59;;;;;;;33.55;21.50;;;6.30;76.00;;;;;;5036635;28;20053;-85
2022/01/24 11:24:37;;;;;;;29.17;20.42;;;6.40;75.70;;;;;;5036099;28;20049;-85
2022/01/24 11:27:25;;;;;;;29.38;19.38;;;6.40;75.50;;;;;;5035819;28;20052;-85
2022/01/24 11:29:55;;;;;;;30.60;20.38;;;6.40;75.20;;;;;;5037822;28;20053;-86
2022/01/24 11:32:38;;;;;;;29.80;19.48;;;6.50;75.00;;;;;;5047381;28;20055;-86
2022/01/24 11:35:06;;;;;;;26.23;18.60;;;6.50;74.80;;;;;;5047351;28;20049;-85
2022/01/24 11:37:45;;;;;;;30.35;19.80;;;6.50;74.70;;;;;;5049103;28;20049;-85
2022/01/24 11:40:20;;;;;;;28.80;19.27;;;6.60;74.50;;;;;;5035679;28;20124;-86
2022/01/24 11:42:47;;;;;;;28.30;19.77;;;6.60;74.40;;;;;;5035393;28;20071;-86
2022/01/24 11:45:45;;;;;;;28.13;19.13;;;6.60;74.30;;;;;;5035650;28;20498;-86
2022/01/24 11:48:17;;;;;;;30.83;18.75;;;6.50;74.20;;;;;;5043629;28;20041;-86
2022/01/24 11:50:55;;;;;;;28.88;19.75;;;6.50;74.20;;;;;;5048320;28;20071;-85
2022/01/24 11:53:25;;;;;;;29.23;19.55;;;6.50;74.20;;;;;;5038933;28;20041;-85
2022/01/24 11:55:55;;;;;;;27.38;19.23;;;6.50;74.10;;;;;;5034689;28;20057;-87
2022/01/24 11:58:26;;;;;;;29.38;19.58;;;6.50;74.10;;;;;;5034864;28;20494;-86
2022/01/24 12:00:56;;;;;;;32.47;19.23;;;6.50;74.10;;;;;;5034660;28;20057;-86
2022/01/24 12:03:27;;;;;;;31.15;20.13;;;6.50;74.10;;;;;;5042017;28;20145;-87
2022/01/24 12:06:09;;;;;;;30.23;19.73;;;6.50;74.10;;;;;;5046274;28;20108;-86
2022/01/24 12:09:05;;;;;;;28.35;20.13;;;6.40;74.10;;;;;;5039539;28;20045;-87
2022/01/24 12:11:35;;;;;;;28.77;18.38;;;6.40;74.10;;;;;;5038782;28;20038;-87
2022/01/24 12:14:36;;;;;;;28.33;19.40;;;6.40;74.20;;;;;;5048621;28;20414;-86
2022/01/24 12:17:05;;;;;;;30.10;20.27;;;6.30;74.30;;;;;;5035790;28;20045;-86
2022/01/24 12:19:34;;;;;;;29.98;20.05;;;6.40;74.30;;;;;;5049830;28;20044;-86
2022/01/24 12:22:42;;;;;;;27.92;19.42;;;6.30;74.40;;;;;;5039007;28;20077;-87
2022/01/24 12:25:09;;;;;;;26.42;18.50;;;6.30;74.50;;;;;;5051631;28;20057;-87
2022/01/24 12:28:18;;;;;;;26.42;18.73;;;6.30;74.50;;;;;;5039600;28;20056;-86
2022/01/24 12:31:10;;;;;;;28.50;18.30;;;6.30;74.60;;;;;;5046699;28;20055;-85
2022/01/24 12:33:41;;;;;;;29.85;18.52;;;6.30;74.60;;;;;;5040338;28;20061;-87
2022/01/24 12:36:12;;;;;;;27.80;18.50;;;6.30;74.70;;;;;;5038502;28;20073;-86
2022/01/24 12:38:47;;;;;;;29.65;19.70;;;6.30;74.70;;;;;;5038952;28;20091;-86
2022/01/24 12:41:18;;;;;;;26.45;18.20;;;6.30;74.80;;;;;;5036597;28;20514;-86
2022/01/24 12:46:33;;;;;;;26.50;19.65;;;6.30;74.80;;;;;;5049672;28;20060;-86
2022/01/24 12:49:04;;;;;;;30.60;19.38;;;6.40;74.90;;;;;;5036424;28;20425;-86
2022/01/24 12:51:35;;;;;;;27.15;18.67;;;6.40;74.80;;;;;;5044487;28;20055;-86
2022/01/24 12:54:04;;;;;;;32.00;19.50;;;6.40;74.90;;;;;;5046431;28;20512;-87
2022/01/24 12:56:34;;;;;;;28.98;19.77;;;6.40;74.90;;;;;;5046346;28;20069;-86
2022/01/24 12:59:01;;;;;;;26.67;18.85;;;6.40;74.90;;;;;;5048955;28;20408;-86
2022/01/24 13:01:33;;;;;;;29.90;20.17;;;6.40;74.80;;;;;;5049242;28;20064;-87
2022/01/24 13:04:12;;;;;;;29.35;20.50;;;6.50;74.80;;;;;;5043026;28;20045;-86
2022/01/24 13:06:43;;;;;;;33.50;21.33;;;6.50;74.80;;;;;;5039576;28;20050;-85
2022/01/24 13:09:10;;;;;;;35.58;22.75;;;6.50;74.80;;;;;;5035181;28;20497;-86
2022/01/24 13:11:45;;;;;;;33.25;21.25;;;6.50;74.80;;;;;;5034764;28;20051;-86
2022/01/24 13:14:21;;;;;;;36.25;22.75;;;6.50;74.70;;;;;;5035828;28;20045;-86
2022/01/24 13:25:07;;;;;;;36.70;22.98;;;6.60;74.70;;;;;;5048589;28;20087;-86
2022/01/24 13:27:37;;;;;;;34.47;21.92;;;6.60;74.60;;;;;;5040320;28;20124;-84
2022/01/24 13:30:07;;;;;;;35.70;22.70;;;6.70;74.60;;;;;;5039830;28;20148;-85
2022/01/24 13:32:52;;;;;;;35.25;22.98;;;6.70;74.60;;;;;;5047402;28;20045;-85
2022/01/24 13:35:25;;;;;;;31.90;21.40;;;6.70;74.60;;;;;;5047557;28;20084;-86
2022/01/24 13:38:05;;;;;;;31.65;21.33;;;6.70;74.50;;;;;;5049275;28;20049;-87
2022/01/24 13:40:38;;;;;;;31.80;20.45;;;6.70;74.50;;;;;;5047112;28;20049;-87
2022/01/24 13:43:07;;;;;;;31.88;21.27;;;6.70;74.50;;;;;;5032625;28;20049;-86
2022/01/24 13:45:40;;;;;;;29.95;20.30;;;6.80;74.50;;;;;;5031876;28;20045;-87
2022/01/24 13:48:18;;;;;;;33.50;19.58;;;6.80;74.40;;;;;;5037196;28;20085;-87
2022/01/24 13:50:54;;;;;;;29.30;20.27;;;6.80;74.40;;;;;;5036931;28;20050;-86
2022/01/24 13:53:36;;;;;;;29.65;19.75;;;6.80;74.40;;;;;;5047212;28;20050;-87
2022/01/24 13:56:43;;;;;;;33.17;20.20;;;6.90;74.40;;;;;;5034237;28;20045;-86
2022/01/24 13:59:15;;;;;;;28.35;18.88;;;6.90;74.30;;;;;;5012996;28;20497;-86
2022/01/24 14:02:02;;;;;;;29.25;19.40;;;6.90;74.40;;;;;;5012929;28;20053;-87
2022/01/24 14:04:38;;;;;;;29.95;19.98;;;6.90;74.30;;;;;;5042879;28;20064;-87
2022/01/24 14:07:14;;;;;;;28.15;19.63;;;6.90;74.30;;;;;;5030116;28;20457;-86
2022/01/24 14:09:46;;;;;;;28.52;18.77;;;6.90;74.20;;;;;;5029125;28;20143;-87
2022/01/24 14:12:17;;;;;;;28.70;19.13;;;6.90;74.20;;;;;;5029259;28;20064;-87
2022/01/24 14:20:03;;;;;;;29.63;19.43;;;6.90;74.10;;;;;;5013910;28;20552;-87
2022/01/24 14:22:49;;;;;;;28.65;19.65;;;6.90;74.10;;;;;;5026389;28;20055;-86
2022/01/24 14:25:22;;;;;;;30.58;18.90;;;6.90;74.00;;;;;;5029920;28;20052;-86
2022/01/24 14:27:52;;;;;;;27.08;19.70;;;6.90;74.00;;;;;;5028933;28;20054;-86
2022/01/24 14:30:37;;;;;;;26.15;18.63;;;6.90;74.00;;;;;;5012016;28;20171;-86
2022/01/24 14:33:12;;;;;;;28.23;18.52;;;6.90;74.00;;;;;;5034783;28;20041;-86
2022/01/24 14:35:58;;;;;;;27.10;18.60;;;6.90;74.00;;;;;;5046420;28;20106;-86
2022/01/24 14:38:35;;;;;;;30.45;18.90;;;6.90;74.00;;;;;;5038121;28;20045;-86
2022/01/24 14:41:19;;;;;;;28.38;19.15;;;6.80;74.00;;;;;;5033824;28;20051;-86
2022/01/24 14:46:36;;;;;;;26.55;18.75;;;6.70;74.00;;;;;;5047572;28;20049;-87
2022/01/24 14:49:09;;;;;;;26.90;18.00;;;6.70;74.00;;;;;;5047447;28;20048;-86